createdAt,value
2023-02-13T00:00:12.444Z,6.90
2023-02-13T00:03:14.842Z,6.90
2023-02-13T00:06:17.195Z,6.90
2023-02-13T00:09:19.337Z,6.90
2023-02-13T00:12:21.507Z,6.90
2023-02-13T00:15:23.719Z,6.90
2023-02-13T00:18:27.284Z,6.90
2023-02-13T00:21:29.464Z,6.90
2023-02-13T00:24:31.617Z,6.90
2023-02-13T00:27:34.070Z,6.90
2023-02-13T00:30:37.144Z,6.90
2023-02-13T00:33:40.045Z,6.90
2023-02-13T00:36:42.285Z,6.90
2023-02-13T00:39:44.550Z,6.90
2023-02-13T00:42:46.735Z,6.90
2023-02-13T00:45:48.953Z,6.90
2023-02-13T00:48:52.058Z,6.90
2023-02-13T00:51:54.278Z,6.90
2023-02-13T00:54:57.465Z,6.90
2023-02-13T00:57:59.845Z,6.90
2023-02-13T01:01:02.283Z,6.90
2023-02-13T01:04:05.485Z,6.90
2023-02-13T01:07:07.707Z,6.90
2023-02-13T01:10:12.592Z,6.90
2023-02-13T01:13:16.545Z,6.90
2023-02-13T01:16:18.905Z,6.90
2023-02-13T01:19:21.175Z,6.90
2023-02-13T01:22:23.506Z,6.90
2023-02-13T01:25:25.787Z,6.90
2023-02-13T01:28:28.505Z,6.90
2023-02-13T01:31:30.856Z,6.90
2023-02-13T01:34:33.926Z,6.90
2023-02-13T01:37:36.281Z,6.90
2023-02-13T01:40:48.710Z,6.80
2023-02-13T01:43:54.741Z,6.90
2023-02-13T01:46:57.073Z,6.90
2023-02-13T01:50:16.464Z,6.90
2023-02-13T01:53:44.364Z,6.90
2023-02-13T01:57:20.155Z,6.80
2023-02-13T02:00:22.677Z,6.80
2023-02-13T02:03:39.968Z,6.80
2023-02-13T02:06:52.401Z,6.80
2023-02-13T02:10:14.233Z,6.80
2023-02-13T02:13:19.632Z,6.80
2023-02-13T02:16:22.547Z,6.80
2023-02-13T02:19:42.954Z,6.80
2023-02-13T02:23:22.812Z,6.80
2023-02-13T02:26:55.886Z,6.80
2023-02-13T02:30:22.660Z,6.80
2023-02-13T02:33:36.789Z,6.80
2023-02-13T02:36:41.984Z,6.80
2023-02-13T02:40:10.253Z,6.80
2023-02-13T02:43:37.377Z,6.80
2023-02-13T02:47:28.072Z,6.80
2023-02-13T02:50:53.747Z,6.80
2023-02-13T02:54:02.568Z,6.80
2023-02-13T02:57:25.171Z,6.80
2023-02-13T03:00:58.269Z,6.80
2023-02-13T03:04:19.862Z,6.80
2023-02-13T03:07:22.131Z,6.80
2023-02-13T03:10:50.269Z,6.80
2023-02-13T03:13:53.462Z,6.80
2023-02-13T03:17:16.649Z,6.80
2023-02-13T03:20:58.021Z,6.80
2023-02-13T03:24:14.566Z,6.80
2023-02-13T03:27:50.444Z,6.80
2023-02-13T03:31:26.690Z,6.80
2023-02-13T03:34:55.748Z,6.80
2023-02-13T03:38:08.564Z,6.80
2023-02-13T03:41:20.464Z,6.80
2023-02-13T03:44:41.285Z,6.70
2023-02-13T03:47:45.004Z,6.80
2023-02-13T03:50:50.419Z,6.70
2023-02-13T03:53:57.087Z,6.80
2023-02-13T03:57:17.816Z,6.70
2023-02-13T04:00:22.126Z,6.70
2023-02-13T04:03:47.260Z,6.70
2023-02-13T04:07:06.812Z,6.70
2023-02-13T04:10:15.119Z,6.70
2023-02-13T04:13:42.897Z,6.70
2023-02-13T04:16:50.490Z,6.70
2023-02-13T04:19:53.571Z,6.70
2023-02-13T04:22:55.768Z,6.70
2023-02-13T04:26:00.552Z,6.70
2023-02-13T04:29:02.963Z,6.70
2023-02-13T04:32:05.562Z,6.70
2023-02-13T04:35:08.068Z,6.70
2023-02-13T04:38:10.268Z,6.70
2023-02-13T04:41:12.752Z,6.70
2023-02-13T04:44:15.026Z,6.70
2023-02-13T04:47:17.268Z,6.70
2023-02-13T04:50:20.139Z,6.70
2023-02-13T04:53:22.412Z,6.70
2023-02-13T04:56:24.674Z,6.70
2023-02-13T04:59:26.884Z,6.70
2023-02-13T05:02:29.118Z,6.70
2023-02-13T05:05:31.431Z,6.70
2023-02-13T05:08:34.248Z,6.70
2023-02-13T05:11:36.519Z,6.70
2023-02-13T05:14:38.765Z,6.70
2023-02-13T05:17:44.508Z,6.70
2023-02-13T05:21:06.539Z,6.70
2023-02-13T05:24:08.949Z,6.70
2023-02-13T05:27:11.137Z,6.70
2023-02-13T05:30:14.065Z,6.70
2023-02-13T05:33:16.246Z,6.70
2023-02-13T05:36:18.481Z,6.70
2023-02-13T05:39:21.134Z,6.70
2023-02-13T05:42:23.222Z,6.70
2023-02-13T05:45:25.524Z,6.70
2023-02-13T05:48:27.643Z,6.70
2023-02-13T05:51:29.866Z,6.70
2023-02-13T05:54:31.977Z,6.70
2023-02-13T05:57:34.868Z,6.70
2023-02-13T06:00:37.016Z,6.70
2023-02-13T06:03:40.602Z,6.70
2023-02-13T06:06:43.220Z,6.70
2023-02-13T06:09:45.369Z,6.70
2023-02-13T06:12:47.614Z,6.70
2023-02-13T06:15:51.056Z,6.70
2023-02-13T06:18:53.350Z,6.60
2023-02-13T06:21:55.741Z,6.70
2023-02-13T06:24:57.903Z,6.60
2023-02-13T06:28:00.168Z,6.60
2023-02-13T06:31:02.805Z,6.60
2023-02-13T06:34:05.160Z,6.60
2023-02-13T06:37:07.373Z,6.60
2023-02-13T06:40:11.027Z,6.60
2023-02-13T06:43:14.606Z,6.60
2023-02-13T06:46:16.846Z,6.60
2023-02-13T06:49:19.246Z,6.60
2023-02-13T06:52:21.489Z,6.60
2023-02-13T06:55:23.695Z,6.60
2023-02-13T06:58:26.828Z,6.60
2023-02-13T07:01:29.183Z,6.60
2023-02-13T07:04:31.392Z,6.60
2023-02-13T07:07:37.994Z,6.60
2023-02-13T07:10:41.910Z,6.60
2023-02-13T07:13:44.146Z,6.60
2023-02-13T07:16:46.321Z,6.60
2023-02-13T07:19:48.462Z,6.60
2023-02-13T07:22:50.904Z,6.60
2023-02-13T07:25:53.150Z,6.60
2023-02-13T07:29:10.217Z,6.60
2023-02-13T07:32:13.369Z,6.60
2023-02-13T07:35:15.605Z,6.60
2023-02-13T07:38:18.557Z,6.60
2023-02-13T07:41:20.839Z,6.60
2023-02-13T07:44:22.956Z,6.60
2023-02-13T07:47:25.218Z,6.60
2023-02-13T07:50:27.965Z,6.50
2023-02-13T07:53:30.226Z,6.60
2023-02-13T07:56:32.423Z,6.60
2023-02-13T07:59:34.607Z,6.50
2023-02-13T08:02:36.770Z,6.60
2023-02-13T08:05:39.299Z,6.60
2023-02-13T08:08:41.474Z,6.60
2023-02-13T08:11:55.902Z,6.60
2023-02-13T08:14:58.018Z,6.60
2023-02-13T08:18:00.248Z,6.60
2023-02-13T08:21:03.499Z,6.60
2023-02-13T08:24:05.939Z,6.50
2023-02-13T08:27:11.553Z,6.50
2023-02-13T08:30:15.540Z,6.60
2023-02-13T08:33:17.742Z,6.60
2023-02-13T08:36:20.168Z,6.60
2023-02-13T08:39:22.432Z,6.60
2023-02-13T08:42:24.622Z,6.50
2023-02-13T08:45:27.140Z,6.60
2023-02-13T08:48:30.088Z,6.60
2023-02-13T08:51:33.114Z,6.60
2023-02-13T08:54:36.590Z,6.60
2023-02-13T08:57:38.832Z,6.60
2023-02-13T09:00:41.208Z,6.60
2023-02-13T09:03:43.534Z,6.60
2023-02-13T09:06:45.785Z,6.60
2023-02-13T09:09:48.014Z,6.60
2023-02-13T09:12:53.919Z,6.60
2023-02-13T09:16:02.588Z,6.60
2023-02-13T09:19:04.980Z,6.60
2023-02-13T09:22:07.123Z,6.60
2023-02-13T09:25:09.856Z,6.60
2023-02-13T09:28:12.092Z,6.60
2023-02-13T09:31:20.494Z,6.60
2023-02-13T09:34:22.830Z,6.60
2023-02-13T09:37:24.938Z,6.50
2023-02-13T09:40:42.239Z,6.60
2023-02-13T09:43:59.382Z,6.60
2023-02-13T09:47:04.271Z,6.60
2023-02-13T09:50:25.631Z,6.60
2023-02-13T09:53:29.486Z,6.60
2023-02-13T09:57:07.434Z,6.60
2023-02-13T10:00:19.813Z,6.60
2023-02-13T10:03:46.248Z,6.60
2023-02-13T10:06:57.239Z,6.60
2023-02-13T10:10:02.416Z,6.60
2023-02-13T10:13:27.822Z,6.60
2023-02-13T10:16:40.624Z,6.60
2023-02-13T10:19:57.045Z,6.60
2023-02-13T10:23:18.091Z,6.60
2023-02-13T10:26:42.756Z,6.60
2023-02-13T10:30:14.654Z,6.60
2023-02-13T10:33:30.484Z,6.60
2023-02-13T10:36:35.633Z,6.60
2023-02-13T10:39:37.919Z,6.60
2023-02-13T10:42:55.065Z,6.60
2023-02-13T10:46:35.144Z,6.60
2023-02-13T10:49:43.719Z,6.60
2023-02-13T10:53:15.884Z,6.70
2023-02-13T10:56:29.799Z,6.60
2023-02-13T10:59:35.198Z,6.70
2023-02-13T11:02:37.725Z,6.60
2023-02-13T11:05:41.337Z,6.70
2023-02-13T11:08:46.372Z,6.70
2023-02-13T11:11:49.847Z,6.70
2023-02-13T11:14:57.779Z,6.70
2023-02-13T11:18:12.035Z,6.70
2023-02-13T11:21:22.409Z,6.70
2023-02-13T11:24:27.203Z,6.70
2023-02-13T11:31:31.866Z,6.70
2023-02-13T11:34:35.352Z,6.70
2023-02-13T11:37:37.691Z,6.70
2023-02-13T11:40:41.877Z,6.70
2023-02-13T11:43:46.420Z,6.70
2023-02-13T11:46:51.254Z,6.70
2023-02-13T11:49:53.692Z,6.70
2023-02-13T11:53:00.651Z,6.70
2023-02-13T11:56:10.705Z,6.70
2023-02-13T11:59:14.526Z,6.70
2023-02-13T12:02:23.836Z,6.70
2023-02-13T12:05:28.217Z,6.70
2023-02-13T12:08:32.934Z,6.70
2023-02-13T12:11:39.343Z,6.70
2023-02-13T12:14:45.020Z,6.70
2023-02-13T12:17:54.781Z,6.70
2023-02-13T12:21:16.530Z,6.80
2023-02-13T12:24:34.836Z,6.80
2023-02-13T12:27:58.657Z,6.80
2023-02-13T12:31:33.205Z,6.70
2023-02-13T12:34:35.366Z,6.80
2023-02-13T12:37:44.722Z,6.80
2023-02-13T12:40:54.323Z,6.80
2023-02-13T12:44:24.673Z,6.80
2023-02-13T12:47:29.789Z,6.80
2023-02-13T12:50:38.723Z,6.80
2023-02-13T12:54:02.020Z,6.80
2023-02-13T12:57:23.301Z,6.80
2023-02-13T13:00:28.218Z,6.80
2023-02-13T13:04:01.622Z,6.80
2023-02-13T13:07:53.195Z,6.80
2023-02-13T13:11:08.786Z,6.80
2023-02-13T13:14:45.800Z,6.80
2023-02-13T13:18:08.634Z,6.80
2023-02-13T13:21:44.045Z,6.80
2023-02-13T13:25:11.118Z,6.90
2023-02-13T13:28:40.966Z,6.80
2023-02-13T13:31:48.478Z,6.80
2023-02-13T13:34:51.590Z,6.90
2023-02-13T13:38:06.388Z,6.80
2023-02-13T13:41:33.337Z,6.90
2023-02-13T13:44:55.304Z,6.90
2023-02-13T13:47:57.576Z,6.90
2023-02-13T13:51:00.616Z,6.90
2023-02-13T13:54:05.637Z,6.90
2023-02-13T13:57:08.737Z,6.90
2023-02-13T14:00:14.029Z,6.90
2023-02-13T14:03:33.992Z,6.90
2023-02-13T14:06:44.997Z,6.90
2023-02-13T14:09:47.277Z,6.90
2023-02-13T14:12:59.974Z,6.90
2023-02-13T14:16:03.247Z,6.90
2023-02-13T14:19:07.159Z,6.90
2023-02-13T14:22:32.838Z,7.00
2023-02-13T14:25:35.499Z,7.00
2023-02-13T14:28:38.803Z,7.00
2023-02-13T14:31:43.286Z,7.00
2023-02-13T14:34:53.816Z,7.00
2023-02-13T14:37:59.320Z,7.00
2023-02-13T14:41:01.746Z,7.00
2023-02-13T14:44:04.054Z,7.00
2023-02-13T14:47:32.512Z,7.00
2023-02-13T14:50:47.794Z,7.00
2023-02-13T14:54:20.698Z,7.00
2023-02-13T14:57:28.676Z,7.00
2023-02-13T15:00:52.613Z,7.00
2023-02-13T15:04:05.806Z,7.00
2023-02-13T15:07:16.042Z,7.00
2023-02-13T15:10:30.242Z,7.10
2023-02-13T15:13:41.056Z,7.00
2023-02-13T15:16:45.369Z,7.10
2023-02-13T15:19:50.440Z,7.10
2023-02-13T15:22:53.663Z,7.00
2023-02-13T15:26:05.279Z,7.10
2023-02-13T15:29:27.807Z,7.10
2023-02-13T15:32:34.911Z,7.10
2023-02-13T15:35:37.778Z,7.10
2023-02-13T15:38:40.088Z,7.10
2023-02-13T15:41:45.580Z,7.10
2023-02-13T15:44:50.944Z,7.10
2023-02-13T15:47:53.577Z,7.10
2023-02-13T15:50:56.333Z,7.10
2023-02-13T15:54:07.374Z,7.10
2023-02-13T15:57:12.731Z,7.10
2023-02-13T16:00:23.102Z,7.10
2023-02-13T16:03:26.129Z,7.10
2023-02-13T16:06:29.143Z,7.10
2023-02-13T16:09:34.124Z,7.20
2023-02-13T16:12:36.361Z,7.20
2023-02-13T16:15:38.654Z,7.10
2023-02-13T16:18:41.134Z,7.10
2023-02-13T16:21:43.660Z,7.20
2023-02-13T16:24:51.093Z,7.20
2023-02-13T16:28:00.189Z,7.30
2023-02-13T16:31:04.340Z,7.30
2023-02-13T16:34:26.771Z,7.40
2023-02-13T16:37:31.673Z,7.40
2023-02-13T16:40:38.798Z,7.40
2023-02-13T16:43:48.255Z,7.40
2023-02-13T16:47:19.953Z,7.40
2023-02-13T16:50:22.298Z,7.40
2023-02-13T16:53:24.555Z,7.40
2023-02-13T16:56:27.063Z,7.40
2023-02-13T16:59:38.476Z,7.40
2023-02-13T17:02:41.572Z,7.40
2023-02-13T17:05:43.817Z,7.40
2023-02-13T17:08:45.978Z,7.40
2023-02-13T17:11:51.675Z,7.40
2023-02-13T17:14:54.907Z,7.40
2023-02-13T17:17:57.504Z,7.50
2023-02-13T17:21:00.314Z,7.40
2023-02-13T17:24:03.019Z,7.50
2023-02-13T17:27:05.350Z,7.50
2023-02-13T17:30:08.041Z,7.50
2023-02-13T17:33:26.122Z,7.40
2023-02-13T17:36:28.621Z,7.50
2023-02-13T17:39:31.564Z,7.50
2023-02-13T17:42:34.103Z,7.50
2023-02-13T17:45:36.312Z,7.50
2023-02-13T17:48:38.523Z,7.50
2023-02-13T17:51:41.309Z,7.50
2023-02-13T17:54:44.486Z,7.50
2023-02-13T17:57:47.268Z,7.50
2023-02-13T18:00:49.972Z,7.50
2023-02-13T18:03:52.247Z,7.50
2023-02-13T18:06:54.761Z,7.50
2023-02-13T18:09:57.011Z,7.50
2023-02-13T18:13:04.596Z,7.50
2023-02-13T18:16:10.251Z,7.50
2023-02-13T18:19:14.106Z,7.50
2023-02-13T18:22:16.283Z,7.50
2023-02-13T18:25:20.638Z,7.50
2023-02-13T18:28:22.897Z,7.50
2023-02-13T18:31:25.327Z,7.50
2023-02-13T18:34:28.247Z,7.50
2023-02-13T18:37:30.604Z,7.50
2023-02-13T18:40:32.859Z,7.50
2023-02-13T18:43:35.075Z,7.50
2023-02-13T18:46:37.411Z,7.50
2023-02-13T18:49:39.799Z,7.50
2023-02-13T18:52:42.019Z,7.50
2023-02-13T18:55:44.125Z,7.50
2023-02-13T18:58:50.113Z,7.50
2023-02-13T19:01:52.454Z,7.50
2023-02-13T19:04:54.697Z,7.50
2023-02-13T19:07:56.993Z,7.50
2023-02-13T19:11:00.550Z,7.50
2023-02-13T19:14:03.011Z,7.50
2023-02-13T19:17:05.386Z,7.50
2023-02-13T19:20:08.253Z,7.50
2023-02-13T19:23:10.460Z,7.50
2023-02-13T19:26:15.020Z,7.50
2023-02-13T19:29:17.252Z,7.50
2023-02-13T19:32:19.747Z,7.40
2023-02-13T19:35:22.010Z,7.40
2023-02-13T19:38:24.186Z,7.40
2023-02-13T19:41:26.938Z,7.40
2023-02-13T19:44:29.051Z,7.40
2023-02-13T19:47:31.262Z,7.50
2023-02-13T19:50:33.468Z,7.40
2023-02-13T19:53:36.017Z,7.40
2023-02-13T19:56:39.526Z,7.40
2023-02-13T19:59:41.790Z,7.40
2023-02-13T20:02:44.000Z,7.50
2023-02-13T20:05:46.241Z,7.40
2023-02-13T20:08:49.029Z,7.40
2023-02-13T20:11:51.199Z,7.40
2023-02-13T20:14:55.833Z,7.40
2023-02-13T20:17:57.906Z,7.40
2023-02-13T20:21:00.389Z,7.40
2023-02-13T20:24:03.349Z,7.40
2023-02-13T20:27:05.559Z,7.50
2023-02-13T20:30:14.319Z,7.50
2023-02-13T20:33:16.577Z,7.40
2023-02-13T20:36:20.481Z,7.50
2023-02-13T20:39:23.511Z,7.40
2023-02-13T20:42:25.643Z,7.40
2023-02-13T20:45:27.893Z,7.40
2023-02-13T20:48:30.298Z,7.40
2023-02-13T20:51:32.516Z,7.40
2023-02-13T20:54:34.779Z,7.40
2023-02-13T20:57:37.118Z,7.40
2023-02-13T21:00:39.513Z,7.40
2023-02-13T21:03:42.418Z,7.50
2023-02-13T21:06:45.390Z,7.40
2023-02-13T21:09:47.551Z,7.40
2023-02-13T21:12:49.809Z,7.40
2023-02-13T21:15:59.077Z,7.50
2023-02-13T21:19:06.681Z,7.40
2023-02-13T21:22:12.248Z,7.40
2023-02-13T21:25:18.822Z,7.40
2023-02-13T21:28:21.337Z,7.40
2023-02-13T21:31:29.377Z,7.40
2023-02-13T21:34:31.782Z,7.40
2023-02-13T21:37:33.873Z,7.40
2023-02-13T21:40:36.042Z,7.50
2023-02-13T21:43:38.506Z,7.40
2023-02-13T21:46:41.313Z,7.40
2023-02-13T21:49:43.574Z,7.40
2023-02-13T21:52:45.781Z,7.40
2023-02-13T21:55:47.961Z,7.40
2023-02-13T21:58:50.618Z,7.40
2023-02-13T22:01:54.634Z,7.40
2023-02-13T22:04:56.931Z,7.40
2023-02-13T22:08:10.933Z,7.40
2023-02-13T22:11:13.293Z,7.40
2023-02-13T22:14:17.649Z,7.40
2023-02-13T22:17:22.141Z,7.40
2023-02-13T22:20:24.533Z,7.40
2023-02-13T22:23:26.629Z,7.40
2023-02-13T22:26:31.547Z,7.40
2023-02-13T22:29:33.686Z,7.40
2023-02-13T22:32:36.100Z,7.40
2023-02-13T22:35:41.963Z,7.40
2023-02-13T22:38:44.864Z,7.40
2023-02-13T22:41:47.040Z,7.40
2023-02-13T22:44:49.251Z,7.40
2023-02-13T22:47:51.507Z,7.40
2023-02-13T22:50:53.728Z,7.40
2023-02-13T22:53:57.384Z,7.40
2023-02-13T22:56:59.511Z,7.40
2023-02-13T23:00:01.849Z,7.40
2023-02-13T23:03:04.548Z,7.40
2023-02-13T23:06:08.107Z,7.40
2023-02-13T23:09:10.423Z,7.40
2023-02-13T23:12:31.765Z,7.30
2023-02-13T23:15:34.737Z,7.40
2023-02-13T23:18:37.030Z,7.40
2023-02-13T23:21:39.237Z,7.40
2023-02-13T23:24:41.488Z,7.30
2023-02-13T23:27:44.535Z,7.40
2023-02-13T23:30:46.808Z,7.40
2023-02-13T23:33:49.200Z,7.30
2023-02-13T23:36:51.387Z,7.30
2023-02-13T23:39:53.529Z,7.40
2023-02-13T23:42:55.964Z,7.30
2023-02-13T23:45:58.199Z,7.30
2023-02-13T23:49:00.477Z,7.30
2023-02-13T23:52:02.939Z,7.30
2023-02-13T23:55:05.602Z,7.30
2023-02-13T23:58:07.804Z,7.30
